Ogden, Arkansas
Current Conditions -  °F | °C
As of 9:53 AM on Thursday 29 Jan 2015 (Local Time) from KTXK Reporting Station
Clear Clear  
Wind Chill: 60°   Ceiling: Unl
Heat Index: 60°   Visibility: 10mi
Dew Point: 46°   Wind: 8mph
Humidity: 60%   Direction: 260°W
Pressure: 30.19"   Gusts: NA
Location:  33.58°N, 94.04°W
Report Text: KTXK 291553Z 26007KT 10SM CLR 16/08 A3019 RMK AO2 SLP219 T01560078
Loading
Personal Weather Stations






























Interactive Weather Map New forecast layout! Learn more

10-Day Weather Forecast

Advertisements
Track Severe Weather on mobile